Terminal Aerodrome Forecast
Issued by NWS Northern Indiana

Home | Current Version | Previous Version | Graphics & Text | Print | Product List | Glossary On
Versions: 1 2 3 4 5 6 7 8 9 10 11 12 13 14 15
000
FTUS43 KIWX 311722
TAFFWA
TAF
KFWA 311722Z 3118/0118 24006KT P6SM BKN040
     FM312300 22003KT P6SM FEW040
     FM010700 23003KT 4SM BR SCT020
      TEMPO 0110/0112 2SM BR
     FM011400 23008KT P6SM SCT035=

USA.gov is the U.S. government's official web portal to all federal, state and local government web resources and services.